Meteo Giornale » Osservazioni meteo Iran » Karaj-Payam
ore: 16:30 - Osservazioni Meteo Karaj-Payam
Lat. 35° 47' N Lon. 50° 50' E Alt. 1271 metri s.l.m.
34 °C
Sereno
Temp. 24 Ore
17 °C
37 °C
Nord
14.8 Km/h
Dew point 10 °C
Umidità 23 %
Visibilità 10 Km
Il sole sorge alle ore 05:38
Il sole tramonta alle ore 18:34
| Data e Ora | Cielo e Fenomeni | T °C | DP °C | Um. % | Pres. hPa | Vis. km | Vento km/h | |
|---|---|---|---|---|---|---|---|---|
| Oggi h: 16:30 | Sereno | 34 | 10 | 23 | 1010 | 10 | N 14.8 | |
| Oggi h: 15:30 | Sereno | 34 | 10 | 23 | 1010 | 10 | N 14.8 | |
| Oggi h: 14:30 | Sereno | 33 | 12 | 27 | 1011 | 10 | N 11.1 | |
| Oggi h: 13:30 | Sereno | 32 | 12 | 29 | 1011 | 10 | O 11.1 | |
| Oggi h: 12:30 | Sereno | 30 | 13 | 35 | 1012 | 10 | O 18.5 | |
| Oggi h: 11:30 | Sereno | 28 | 13 | 39 | 1013 | 10 | NO 22.2 | |
| Oggi h: 10:30 | Sereno | 26 | 14 | 47 | 1013 | 10 | NO 22.2 | |
| Oggi h: 09:30 | Sereno | 23 | 13 | 53 | 1014 | 10 | NO 25.9 | |
| Oggi h: 08:30 | Sereno | 21 | 14 | 64 | 1013 | 10 | N/NO 35.2 | |
| Oggi h: 07:30 | Sereno | 19 | 13 | 68 | 1013 | 10 | NO 35.2 | |
| Oggi h: 06:30 | Sereno | 17 | 13 | 77 | 1013 | 10 | N/NO 31.5 | |
| Oggi h: 05:30 | Sereno | 17 | 13 | 77 | 1013 | 10 | N/NO 29.6 | |
| Oggi h: 04:30 | Sereno | 17 | 13 | 77 | 1013 | 10 | N/NO 25.9 | |
| Oggi h: 03:30 | Sereno | 17 | 13 | 77 | 1012 | 10 | NO 31.5 | |
| Oggi h: 02:30 | Sereno | 17 | 13 | 77 | 1012 | 10 | NO 25.9 | |
| Oggi h: 01:30 | Sereno | 18 | 13 | 72 | 1012 | 10 | NO 25.9 | |
| Oggi h: 00:30 | Sereno | 18 | 12 | 67 | 1012 | 10 | NO 25.9 | |
| Ieri h: 23:30 | Sereno | 19 | 12 | 63 | 1012 | 10 | NO 29.6 | |
| Ieri h: 22:30 | Sereno | 20 | 12 | 59 | 1012 | 10 | NO 25.9 | |
| Ieri h: 21:30 | Sereno | 22 | 11 | 49 | 1012 | 10 | N/NO 22.2 | |
| Ieri h: 20:30 | Poco Nuvoloso | 25 | 11 | 41 | 1010 | 10 | O/NO 25.9 | |
| Ieri h: 19:30 | Poco Nuvoloso | 28 | 12 | 37 | 1009 | 10 | NO 18.5 | |
| Ieri h: 18:30 | Poco Nuvoloso | 35 | 5 | 15 | 1008 | 10 | SE 14.8 | |
| Ieri h: 17:30 | Nuvoloso | 37 | 7 | 15 | 1008 | 10 | SE 14.8 | |



